KARB/ARB METAR and TAF weather

Enter ICAO airport designator
Station Type Date Time Source
KARB METAR 2022/11/27 06:53 UTC NOAA

KARB 270653Z AUTO 18003KT 10SM CLR 02/M03 A2977 RMK AO2 SLP083 T00171033


Station Type Date Time Source
KARB Decoded METAR 2022/11/27 06:53 UTC NOAA

ANN ARBOR MUNICIPAL AIRPORT, MI, United States (KARB) 42-13N 083-45W 251M
Nov 27, 2022 - 01:53 AM EST / 2022.11.27 0653 UTC
Wind: from the S (180 degrees) at 3 MPH (3 KT):0
Visibility: 10 mile(s):0
Sky conditions: clear
Temperature: 35.1 F (1.7 C)
Dew Point: 26.1 F (-3.3 C)
Relative Humidity: 69%
Pressure (altimeter): 29.77 in. Hg (1008 hPa)
ob: KARB 270653Z AUTO 18003KT 10SM CLR 02/M03 A2977 RMK AO2 SLP083 T00171033
cycle: 7

Station Type Date Time Source
KARB TAF UTC NOAA

Error!

Example: see airport list